sensor_id;sensor_type;location;lat;lon;timestamp;pressure;altitude;pressure_sealevel;temperature;humidity
45991;BME280;31721;41.740;-88.000;2023-07-31T00:01:46;99242.17;;;25.67;36.60
45991;BME280;31721;41.740;-88.000;2023-07-31T00:04:13;99238.48;;;25.60;36.19
45991;BME280;31721;41.740;-88.000;2023-07-31T00:06:41;99240.91;;;25.52;36.09
45991;BME280;31721;41.740;-88.000;2023-07-31T00:09:09;99242.20;;;25.45;36.18
45991;BME280;31721;41.740;-88.000;2023-07-31T00:11:37;99242.93;;;25.41;37.08
45991;BME280;31721;41.740;-88.000;2023-07-31T00:14:05;99236.03;;;25.44;37.28
45991;BME280;31721;41.740;-88.000;2023-07-31T00:19:12;99231.55;;;25.21;37.38
45991;BME280;31721;41.740;-88.000;2023-07-31T00:21:39;99232.81;;;25.06;37.57
45991;BME280;31721;41.740;-88.000;2023-07-31T00:24:07;99227.28;;;25.13;37.26
45991;BME280;31721;41.740;-88.000;2023-07-31T00:26:35;99227.27;;;25.13;37.17
45991;BME280;31721;41.740;-88.000;2023-07-31T00:29:02;99229.15;;;25.06;37.00
45991;BME280;31721;41.740;-88.000;2023-07-31T00:31:30;99234.08;;;24.97;37.10
45991;BME280;31721;41.740;-88.000;2023-07-31T00:33:58;99234.93;;;25.05;37.43
45991;BME280;31721;41.740;-88.000;2023-07-31T00:36:25;99234.43;;;25.01;37.53
45991;BME280;31721;41.740;-88.000;2023-07-31T00:38:53;99232.86;;;24.91;37.09
45991;BME280;31721;41.740;-88.000;2023-07-31T00:41:21;99233.54;;;24.84;37.13
45991;BME280;31721;41.740;-88.000;2023-07-31T00:43:49;99238.54;;;24.87;36.87
45991;BME280;31721;41.740;-88.000;2023-07-31T00:46:17;99237.61;;;24.72;37.03
45991;BME280;31721;41.740;-88.000;2023-07-31T00:48:44;99238.35;;;24.73;37.45
45991;BME280;31721;41.740;-88.000;2023-07-31T00:51:12;99234.80;;;24.64;37.27
45991;BME280;31721;41.740;-88.000;2023-07-31T00:53:40;99234.24;;;24.53;37.19
45991;BME280;31721;41.740;-88.000;2023-07-31T00:56:08;99239.14;;;24.53;37.43
45991;BME280;31721;41.740;-88.000;2023-07-31T00:58:36;99240.26;;;24.35;37.70
45991;BME280;31721;41.740;-88.000;2023-07-31T01:01:04;99241.68;;;24.27;37.56
45991;BME280;31721;41.740;-88.000;2023-07-31T01:03:32;99250.12;;;24.31;37.40
45991;BME280;31721;41.740;-88.000;2023-07-31T01:06:11;99251.39;;;24.26;37.72
45991;BME280;31721;41.740;-88.000;2023-07-31T01:08:47;99250.51;;;24.16;37.94
45991;BME280;31721;41.740;-88.000;2023-07-31T01:11:24;99252.79;;;24.11;37.77
45991;BME280;31721;41.740;-88.000;2023-07-31T01:13:54;99254.78;;;24.06;38.03
45991;BME280;31721;41.740;-88.000;2023-07-31T01:16:22;99251.15;;;24.00;38.55
45991;BME280;31721;41.740;-88.000;2023-07-31T01:18:50;99251.59;;;23.94;38.72
45991;BME280;31721;41.740;-88.000;2023-07-31T01:21:29;99251.14;;;23.89;39.00
45991;BME280;31721;41.740;-88.000;2023-07-31T01:24:17;99253.21;;;23.82;38.96
45991;BME280;31721;41.740;-88.000;2023-07-31T01:26:50;99250.25;;;23.75;38.89
45991;BME280;31721;41.740;-88.000;2023-07-31T01:29:26;99256.07;;;23.69;38.96
45991;BME280;31721;41.740;-88.000;2023-07-31T01:31:55;99257.59;;;23.67;39.08
45991;BME280;31721;41.740;-88.000;2023-07-31T01:34:24;99254.30;;;23.68;38.89
45991;BME280;31721;41.740;-88.000;2023-07-31T01:36:53;99251.50;;;23.43;38.93
45991;BME280;31721;41.740;-88.000;2023-07-31T01:39:21;99255.64;;;23.35;39.30
45991;BME280;31721;41.740;-88.000;2023-07-31T01:41:49;99254.10;;;23.36;39.80
45991;BME280;31721;41.740;-88.000;2023-07-31T01:44:16;99257.34;;;23.26;39.95
45991;BME280;31721;41.740;-88.000;2023-07-31T01:46:44;99258.87;;;23.29;40.07
45991;BME280;31721;41.740;-88.000;2023-07-31T01:49:12;99260.45;;;23.24;40.24
45991;BME280;31721;41.740;-88.000;2023-07-31T01:51:40;99253.23;;;23.26;40.52
45991;BME280;31721;41.740;-88.000;2023-07-31T01:54:07;99254.32;;;23.12;40.16
45991;BME280;31721;41.740;-88.000;2023-07-31T01:56:34;99258.01;;;23.15;40.39
45991;BME280;31721;41.740;-88.000;2023-07-31T01:59:02;99258.66;;;23.08;40.31
45991;BME280;31721;41.740;-88.000;2023-07-31T02:01:30;99261.57;;;23.00;40.25
45991;BME280;31721;41.740;-88.000;2023-07-31T02:03:58;99268.23;;;22.87;40.33
45991;BME280;31721;41.740;-88.000;2023-07-31T02:06:27;99264.47;;;22.83;40.66
45991;BME280;31721;41.740;-88.000;2023-07-31T02:08:55;99255.63;;;22.84;41.09
45991;BME280;31721;41.740;-88.000;2023-07-31T02:11:23;99254.05;;;22.83;41.03
45991;BME280;31721;41.740;-88.000;2023-07-31T02:13:51;99255.85;;;22.80;41.03
45991;BME280;31721;41.740;-88.000;2023-07-31T02:16:19;99255.77;;;22.86;40.97
45991;BME280;31721;41.740;-88.000;2023-07-31T02:18:48;99261.22;;;22.74;41.32
45991;BME280;31721;41.740;-88.000;2023-07-31T02:21:16;99268.36;;;22.87;41.09
45991;BME280;31721;41.740;-88.000;2023-07-31T02:23:44;99270.29;;;22.69;41.31
45991;BME280;31721;41.740;-88.000;2023-07-31T02:26:13;99274.29;;;22.63;41.31
45991;BME280;31721;41.740;-88.000;2023-07-31T02:28:41;99280.93;;;22.64;41.54
45991;BME280;31721;41.740;-88.000;2023-07-31T02:31:09;99284.48;;;22.58;41.63
45991;BME280;31721;41.740;-88.000;2023-07-31T02:33:38;99288.49;;;22.40;41.32
45991;BME280;31721;41.740;-88.000;2023-07-31T02:36:06;99286.36;;;22.32;41.52
45991;BME280;31721;41.740;-88.000;2023-07-31T02:38:34;99280.82;;;22.36;41.94
45991;BME280;31721;41.740;-88.000;2023-07-31T02:41:02;99277.33;;;22.30;42.04
45991;BME280;31721;41.740;-88.000;2023-07-31T02:43:31;99277.75;;;22.34;42.27
45991;BME280;31721;41.740;-88.000;2023-07-31T02:45:59;99280.02;;;22.20;42.23
45991;BME280;31721;41.740;-88.000;2023-07-31T02:48:27;99272.71;;;22.18;42.49
45991;BME280;31721;41.740;-88.000;2023-07-31T02:50:55;99267.53;;;22.14;42.76
45991;BME280;31721;41.740;-88.000;2023-07-31T02:53:23;99265.58;;;22.10;42.70
45991;BME280;31721;41.740;-88.000;2023-07-31T02:55:51;99259.86;;;21.95;42.69
45991;BME280;31721;41.740;-88.000;2023-07-31T02:58:18;99257.91;;;21.94;42.57
45991;BME280;31721;41.740;-88.000;2023-07-31T03:00:47;99252.09;;;21.77;42.81
45991;BME280;31721;41.740;-88.000;2023-07-31T03:03:15;99251.63;;;21.75;43.07
45991;BME280;31721;41.740;-88.000;2023-07-31T03:05:43;99254.35;;;21.71;43.59
45991;BME280;31721;41.740;-88.000;2023-07-31T03:08:11;99260.75;;;21.73;43.82
45991;BME280;31721;41.740;-88.000;2023-07-31T03:10:38;99259.19;;;21.62;44.04
45991;BME280;31721;41.740;-88.000;2023-07-31T03:13:06;99258.08;;;21.57;44.20
45991;BME280;31721;41.740;-88.000;2023-07-31T03:15:34;99256.97;;;21.48;44.06
45991;BME280;31721;41.740;-88.000;2023-07-31T03:18:02;99256.22;;;21.40;44.03
45991;BME280;31721;41.740;-88.000;2023-07-31T03:20:30;99254.63;;;21.34;44.35
45991;BME280;31721;41.740;-88.000;2023-07-31T03:22:58;99250.61;;;21.25;44.67
45991;BME280;31721;41.740;-88.000;2023-07-31T03:25:25;99249.21;;;21.29;44.81
45991;BME280;31721;41.740;-88.000;2023-07-31T03:27:53;99250.77;;;21.23;44.78
45991;BME280;31721;41.740;-88.000;2023-07-31T03:30:21;99253.37;;;21.23;44.95
45991;BME280;31721;41.740;-88.000;2023-07-31T03:32:49;99254.78;;;21.32;45.18
45991;BME280;31721;41.740;-88.000;2023-07-31T03:35:16;99255.56;;;21.28;45.10
45991;BME280;31721;41.740;-88.000;2023-07-31T03:37:44;99257.19;;;21.27;45.27
45991;BME280;31721;41.740;-88.000;2023-07-31T03:40:12;99253.40;;;21.22;45.33
45991;BME280;31721;41.740;-88.000;2023-07-31T03:42:40;99249.35;;;21.16;45.53
45991;BME280;31721;41.740;-88.000;2023-07-31T03:45:09;99247.65;;;20.98;46.18
45991;BME280;31721;41.740;-88.000;2023-07-31T03:47:37;99252.41;;;21.02;45.94
45991;BME280;31721;41.740;-88.000;2023-07-31T03:50:06;99254.78;;;21.06;46.07
45991;BME280;31721;41.740;-88.000;2023-07-31T03:52:33;99252.49;;;20.99;46.12
45991;BME280;31721;41.740;-88.000;2023-07-31T03:55:01;99253.50;;;20.94;46.02
45991;BME280;31721;41.740;-88.000;2023-07-31T03:57:28;99254.72;;;20.93;46.10
45991;BME280;31721;41.740;-88.000;2023-07-31T03:59:56;99258.37;;;20.91;46.38
45991;BME280;31721;41.740;-88.000;2023-07-31T04:02:24;99255.03;;;20.75;46.07
45991;BME280;31721;41.740;-88.000;2023-07-31T04:04:52;99255.15;;;20.79;46.30
45991;BME280;31721;41.740;-88.000;2023-07-31T04:07:20;99253.66;;;20.71;46.24
45991;BME280;31721;41.740;-88.000;2023-07-31T04:09:48;99253.63;;;20.63;46.29
45991;BME280;31721;41.740;-88.000;2023-07-31T04:12:16;99254.99;;;20.61;46.79
45991;BME280;31721;41.740;-88.000;2023-07-31T04:14:44;99260.99;;;20.54;46.69
45991;BME280;31721;41.740;-88.000;2023-07-31T04:17:12;99265.34;;;20.51;46.62
45991;BME280;31721;41.740;-88.000;2023-07-31T04:19:40;99270.39;;;20.53;46.68
45991;BME280;31721;41.740;-88.000;2023-07-31T04:22:08;99273.96;;;20.41;47.00
45991;BME280;31721;41.740;-88.000;2023-07-31T04:24:36;99280.44;;;20.54;47.17
45991;BME280;31721;41.740;-88.000;2023-07-31T04:27:04;99279.91;;;20.49;47.41
45991;BME280;31721;41.740;-88.000;2023-07-31T04:29:32;99280.51;;;20.27;47.38
45991;BME280;31721;41.740;-88.000;2023-07-31T04:32:00;99280.66;;;20.30;47.73
45991;BME280;31721;41.740;-88.000;2023-07-31T04:34:28;99274.77;;;20.25;47.88
45991;BME280;31721;41.740;-88.000;2023-07-31T04:36:56;99273.03;;;20.16;48.06
45991;BME280;31721;41.740;-88.000;2023-07-31T04:39:23;99269.21;;;20.22;48.38
45991;BME280;31721;41.740;-88.000;2023-07-31T04:41:51;99270.95;;;20.17;48.59
45991;BME280;31721;41.740;-88.000;2023-07-31T04:44:19;99276.24;;;20.15;48.55
45991;BME280;31721;41.740;-88.000;2023-07-31T04:46:46;99275.33;;;20.22;49.03
45991;BME280;31721;41.740;-88.000;2023-07-31T04:49:14;99276.90;;;20.12;48.74
45991;BME280;31721;41.740;-88.000;2023-07-31T04:51:41;99279.46;;;20.08;48.75
45991;BME280;31721;41.740;-88.000;2023-07-31T04:54:09;99282.94;;;20.08;48.80
45991;BME280;31721;41.740;-88.000;2023-07-31T04:56:37;99285.26;;;20.00;48.66
45991;BME280;31721;41.740;-88.000;2023-07-31T04:59:06;99289.75;;;20.11;48.66
45991;BME280;31721;41.740;-88.000;2023-07-31T05:01:34;99292.54;;;20.00;48.46
45991;BME280;31721;41.740;-88.000;2023-07-31T05:04:02;99291.96;;;19.95;48.31
45991;BME280;31721;41.740;-88.000;2023-07-31T05:06:30;99292.27;;;19.93;48.48
45991;BME280;31721;41.740;-88.000;2023-07-31T05:08:58;99293.31;;;19.89;48.54
45991;BME280;31721;41.740;-88.000;2023-07-31T05:11:25;99293.58;;;19.97;48.76
45991;BME280;31721;41.740;-88.000;2023-07-31T05:13:54;99296.89;;;19.87;48.92
45991;BME280;31721;41.740;-88.000;2023-07-31T05:16:22;99302.57;;;19.89;48.63
45991;BME280;31721;41.740;-88.000;2023-07-31T05:18:50;99303.45;;;19.85;48.82
45991;BME280;31721;41.740;-88.000;2023-07-31T05:21:19;99307.06;;;19.81;48.76
45991;BME280;31721;41.740;-88.000;2023-07-31T05:23:47;99308.04;;;19.66;48.74
45991;BME280;31721;41.740;-88.000;2023-07-31T05:26:14;99306.80;;;19.61;49.23
45991;BME280;31721;41.740;-88.000;2023-07-31T05:28:42;99304.99;;;19.64;49.54
45991;BME280;31721;41.740;-88.000;2023-07-31T05:31:09;99309.41;;;19.51;49.76
45991;BME280;31721;41.740;-88.000;2023-07-31T05:33:37;99307.81;;;19.53;49.77
45991;BME280;31721;41.740;-88.000;2023-07-31T05:36:05;99307.03;;;19.42;49.68
45991;BME280;31721;41.740;-88.000;2023-07-31T05:38:32;99307.18;;;19.41;50.27
45991;BME280;31721;41.740;-88.000;2023-07-31T05:41:00;99306.75;;;19.39;49.98
45991;BME280;31721;41.740;-88.000;2023-07-31T05:43:27;99308.68;;;19.33;50.09
45991;BME280;31721;41.740;-88.000;2023-07-31T05:45:54;99308.01;;;19.32;50.28
45991;BME280;31721;41.740;-88.000;2023-07-31T05:48:23;99304.10;;;19.29;50.16
45991;BME280;31721;41.740;-88.000;2023-07-31T05:50:50;99304.02;;;19.23;50.17
45991;BME280;31721;41.740;-88.000;2023-07-31T05:53:18;99302.73;;;19.20;50.56
45991;BME280;31721;41.740;-88.000;2023-07-31T05:55:46;99304.15;;;19.23;50.54
45991;BME280;31721;41.740;-88.000;2023-07-31T05:58:14;99301.11;;;19.10;50.04
45991;BME280;31721;41.740;-88.000;2023-07-31T06:00:43;99301.10;;;19.05;50.01
45991;BME280;31721;41.740;-88.000;2023-07-31T06:03:11;99299.92;;;19.02;50.33
45991;BME280;31721;41.740;-88.000;2023-07-31T06:05:39;99299.34;;;19.02;50.53
45991;BME280;31721;41.740;-88.000;2023-07-31T06:08:06;99299.68;;;19.08;50.20
45991;BME280;31721;41.740;-88.000;2023-07-31T06:10:34;99299.92;;;19.02;50.64
45991;BME280;31721;41.740;-88.000;2023-07-31T06:13:02;99297.57;;;19.07;50.51
45991;BME280;31721;41.740;-88.000;2023-07-31T06:15:30;99300.71;;;19.00;50.71
45991;BME280;31721;41.740;-88.000;2023-07-31T06:17:58;99300.30;;;19.06;50.54
45991;BME280;31721;41.740;-88.000;2023-07-31T06:20:25;99293.24;;;19.07;50.68
45991;BME280;31721;41.740;-88.000;2023-07-31T06:22:53;99284.91;;;19.07;50.43
45991;BME280;31721;41.740;-88.000;2023-07-31T06:25:21;99285.48;;;19.13;50.57
45991;BME280;31721;41.740;-88.000;2023-07-31T06:27:49;99279.26;;;19.08;50.86
45991;BME280;31721;41.740;-88.000;2023-07-31T06:30:17;99280.35;;;19.01;50.55
45991;BME280;31721;41.740;-88.000;2023-07-31T06:32:45;99279.52;;;18.98;50.62
45991;BME280;31721;41.740;-88.000;2023-07-31T06:35:13;99276.51;;;18.99;51.13
45991;BME280;31721;41.740;-88.000;2023-07-31T06:37:40;99270.70;;;18.96;51.08
45991;BME280;31721;41.740;-88.000;2023-07-31T06:40:09;99272.77;;;19.04;51.22
45991;BME280;31721;41.740;-88.000;2023-07-31T06:42:38;99272.40;;;18.99;51.23
45991;BME280;31721;41.740;-88.000;2023-07-31T06:45:07;99273.78;;;19.00;51.19
45991;BME280;31721;41.740;-88.000;2023-07-31T06:47:35;99270.61;;;19.15;51.06
45991;BME280;31721;41.740;-88.000;2023-07-31T06:50:03;99275.02;;;19.14;50.98
45991;BME280;31721;41.740;-88.000;2023-07-31T06:52:31;99273.14;;;19.02;51.00
45991;BME280;31721;41.740;-88.000;2023-07-31T06:55:03;99271.27;;;19.01;51.16
45991;BME280;31721;41.740;-88.000;2023-07-31T06:57:30;99274.44;;;19.03;51.13
45991;BME280;31721;41.740;-88.000;2023-07-31T06:59:58;99277.27;;;19.04;51.19
45991;BME280;31721;41.740;-88.000;2023-07-31T07:02:26;99277.62;;;19.05;51.11
45991;BME280;31721;41.740;-88.000;2023-07-31T07:04:54;99282.36;;;18.96;50.94
45991;BME280;31721;41.740;-88.000;2023-07-31T07:07:22;99284.24;;;19.07;51.10
45991;BME280;31721;41.740;-88.000;2023-07-31T07:09:50;99290.65;;;19.28;50.91
45991;BME280;31721;41.740;-88.000;2023-07-31T07:12:17;99293.44;;;19.23;50.84
45991;BME280;31721;41.740;-88.000;2023-07-31T07:14:45;99292.89;;;19.24;50.76
45991;BME280;31721;41.740;-88.000;2023-07-31T07:17:13;99288.33;;;19.07;51.15
45991;BME280;31721;41.740;-88.000;2023-07-31T07:19:41;99289.76;;;19.12;50.96
45991;BME280;31721;41.740;-88.000;2023-07-31T07:22:09;99292.34;;;19.24;51.13
45991;BME280;31721;41.740;-88.000;2023-07-31T07:24:37;99294.81;;;19.15;51.08
45991;BME280;31721;41.740;-88.000;2023-07-31T07:27:06;99294.56;;;19.16;51.52
45991;BME280;31721;41.740;-88.000;2023-07-31T07:29:35;99298.31;;;19.13;51.66
45991;BME280;31721;41.740;-88.000;2023-07-31T07:32:03;99301.08;;;19.07;51.80
45991;BME280;31721;41.740;-88.000;2023-07-31T07:34:30;99296.98;;;18.93;52.07
45991;BME280;31721;41.740;-88.000;2023-07-31T07:36:58;99293.01;;;18.94;52.53
45991;BME280;31721;41.740;-88.000;2023-07-31T07:39:26;99293.35;;;18.85;52.82
45991;BME280;31721;41.740;-88.000;2023-07-31T07:41:53;99292.04;;;18.89;52.81
45991;BME280;31721;41.740;-88.000;2023-07-31T07:44:21;99293.46;;;18.76;52.84
45991;BME280;31721;41.740;-88.000;2023-07-31T07:46:49;99293.32;;;18.82;52.81
45991;BME280;31721;41.740;-88.000;2023-07-31T07:49:17;99291.23;;;18.90;52.61
45991;BME280;31721;41.740;-88.000;2023-07-31T07:51:44;99291.36;;;18.83;52.75
45991;BME280;31721;41.740;-88.000;2023-07-31T07:54:12;99287.43;;;18.89;52.79
45991;BME280;31721;41.740;-88.000;2023-07-31T07:56:40;99287.31;;;18.71;52.55
45991;BME280;31721;41.740;-88.000;2023-07-31T07:59:08;99287.29;;;18.71;52.70
45991;BME280;31721;41.740;-88.000;2023-07-31T08:01:36;99291.11;;;18.82;52.59
45991;BME280;31721;41.740;-88.000;2023-07-31T08:04:04;99295.93;;;18.83;52.57
45991;BME280;31721;41.740;-88.000;2023-07-31T08:06:32;99296.59;;;18.68;52.59
45991;BME280;31721;41.740;-88.000;2023-07-31T08:09:00;99298.52;;;18.82;52.81
45991;BME280;31721;41.740;-88.000;2023-07-31T08:11:28;99301.03;;;18.81;52.55
45991;BME280;31721;41.740;-88.000;2023-07-31T08:13:56;99302.86;;;18.79;52.49
45991;BME280;31721;41.740;-88.000;2023-07-31T08:16:23;99304.39;;;18.73;52.67
45991;BME280;31721;41.740;-88.000;2023-07-31T08:18:51;99300.87;;;18.66;52.75
45991;BME280;31721;41.740;-88.000;2023-07-31T08:21:21;99303.07;;;18.57;52.87
45991;BME280;31721;41.740;-88.000;2023-07-31T08:23:49;99307.84;;;18.54;52.86
45991;BME280;31721;41.740;-88.000;2023-07-31T08:26:17;99313.59;;;18.68;52.87
45991;BME280;31721;41.740;-88.000;2023-07-31T08:28:44;99322.80;;;18.66;52.92
45991;BME280;31721;41.740;-88.000;2023-07-31T08:31:12;99323.55;;;18.57;53.05
45991;BME280;31721;41.740;-88.000;2023-07-31T08:33:40;99324.26;;;18.53;53.07
45991;BME280;31721;41.740;-88.000;2023-07-31T08:36:07;99325.52;;;18.39;53.12
45991;BME280;31721;41.740;-88.000;2023-07-31T08:38:35;99327.01;;;18.50;53.24
45991;BME280;31721;41.740;-88.000;2023-07-31T08:41:04;99332.58;;;18.45;53.31
45991;BME280;31721;41.740;-88.000;2023-07-31T08:43:31;99338.03;;;18.50;53.61
45991;BME280;31721;41.740;-88.000;2023-07-31T08:46:00;99342.95;;;18.48;53.60
45991;BME280;31721;41.740;-88.000;2023-07-31T08:48:28;99347.69;;;18.39;53.62
45991;BME280;31721;41.740;-88.000;2023-07-31T08:50:56;99352.03;;;18.48;53.71
45991;BME280;31721;41.740;-88.000;2023-07-31T08:53:24;99354.29;;;18.51;53.73
45991;BME280;31721;41.740;-88.000;2023-07-31T08:55:53;99351.39;;;18.48;53.87
45991;BME280;31721;41.740;-88.000;2023-07-31T08:58:22;99356.12;;;18.47;54.02
45991;BME280;31721;41.740;-88.000;2023-07-31T09:00:51;99365.76;;;18.50;54.10
45991;BME280;31721;41.740;-88.000;2023-07-31T09:03:23;99368.54;;;18.51;54.02
45991;BME280;31721;41.740;-88.000;2023-07-31T09:05:53;99370.99;;;18.49;54.16
45991;BME280;31721;41.740;-88.000;2023-07-31T09:08:22;99373.72;;;18.46;54.25
45991;BME280;31721;41.740;-88.000;2023-07-31T09:10:50;99374.41;;;18.39;54.35
45991;BME280;31721;41.740;-88.000;2023-07-31T09:13:18;99375.83;;;18.46;54.57
45991;BME280;31721;41.740;-88.000;2023-07-31T09:15:46;99372.03;;;18.47;54.39
45991;BME280;31721;41.740;-88.000;2023-07-31T09:18:14;99369.57;;;18.47;54.64
45991;BME280;31721;41.740;-88.000;2023-07-31T09:20:42;99367.74;;;18.48;54.69
45991;BME280;31721;41.740;-88.000;2023-07-31T09:23:12;99371.96;;;18.44;54.82
45991;BME280;31721;41.740;-88.000;2023-07-31T09:25:43;99371.74;;;18.56;55.00
45991;BME280;31721;41.740;-88.000;2023-07-31T09:28:12;99369.25;;;18.52;54.84
45991;BME280;31721;41.740;-88.000;2023-07-31T09:30:46;99370.86;;;18.55;54.88
45991;BME280;31721;41.740;-88.000;2023-07-31T09:33:13;99372.39;;;18.54;54.87
45991;BME280;31721;41.740;-88.000;2023-07-31T09:35:41;99371.94;;;18.68;54.96
45991;BME280;31721;41.740;-88.000;2023-07-31T09:38:10;99375.73;;;18.63;54.91
45991;BME280;31721;41.740;-88.000;2023-07-31T09:40:40;99383.10;;;18.72;54.73
45991;BME280;31721;41.740;-88.000;2023-07-31T09:43:09;99386.05;;;18.74;54.72
45991;BME280;31721;41.740;-88.000;2023-07-31T09:45:39;99381.23;;;18.70;54.71
45991;BME280;31721;41.740;-88.000;2023-07-31T09:48:08;99379.14;;;18.65;54.51
45991;BME280;31721;41.740;-88.000;2023-07-31T09:50:38;99377.39;;;18.68;54.40
45991;BME280;31721;41.740;-88.000;2023-07-31T09:53:07;99379.62;;;18.60;54.68
45991;BME280;31721;41.740;-88.000;2023-07-31T09:55:36;99374.06;;;18.72;54.83
45991;BME280;31721;41.740;-88.000;2023-07-31T09:58:06;99378.33;;;18.60;55.20
45991;BME280;31721;41.740;-88.000;2023-07-31T10:00:35;99376.66;;;18.68;55.23
45991;BME280;31721;41.740;-88.000;2023-07-31T10:03:05;99368.19;;;18.62;55.08
45991;BME280;31721;41.740;-88.000;2023-07-31T10:05:35;99366.65;;;18.71;55.19
45991;BME280;31721;41.740;-88.000;2023-07-31T10:08:03;99369.79;;;18.73;55.44
45991;BME280;31721;41.740;-88.000;2023-07-31T10:10:31;99373.20;;;18.69;55.43
45991;BME280;31721;41.740;-88.000;2023-07-31T10:13:00;99374.64;;;18.72;55.34
45991;BME280;31721;41.740;-88.000;2023-07-31T10:15:29;99371.68;;;18.73;55.43
45991;BME280;31721;41.740;-88.000;2023-07-31T10:17:58;99371.29;;;18.79;55.48
45991;BME280;31721;41.740;-88.000;2023-07-31T10:20:27;99364.55;;;18.82;55.46
45991;BME280;31721;41.740;-88.000;2023-07-31T10:22:55;99363.46;;;18.85;55.48
45991;BME280;31721;41.740;-88.000;2023-07-31T10:25:24;99358.04;;;18.87;55.43
45991;BME280;31721;41.740;-88.000;2023-07-31T10:27:54;99355.12;;;18.87;55.44
45991;BME280;31721;41.740;-88.000;2023-07-31T10:30:24;99356.66;;;18.86;55.36
45991;BME280;31721;41.740;-88.000;2023-07-31T10:32:53;99362.90;;;18.90;55.22
45991;BME280;31721;41.740;-88.000;2023-07-31T10:35:22;99364.15;;;18.91;55.10
45991;BME280;31721;41.740;-88.000;2023-07-31T10:37:50;99362.37;;;18.92;54.96
45991;BME280;31721;41.740;-88.000;2023-07-31T10:40:23;99363.21;;;18.83;55.13
45991;BME280;31721;41.740;-88.000;2023-07-31T10:42:53;99366.54;;;18.76;55.19
45991;BME280;31721;41.740;-88.000;2023-07-31T10:45:25;99364.43;;;18.67;55.07
45991;BME280;31721;41.740;-88.000;2023-07-31T10:47:59;99366.59;;;18.64;55.34
45991;BME280;31721;41.740;-88.000;2023-07-31T10:50:29;99364.71;;;18.74;55.31
45991;BME280;31721;41.740;-88.000;2023-07-31T10:52:57;99366.83;;;18.59;55.35
45991;BME280;31721;41.740;-88.000;2023-07-31T10:55:28;99366.85;;;18.64;55.22
45991;BME280;31721;41.740;-88.000;2023-07-31T10:57:57;99367.96;;;18.49;55.19
45991;BME280;31721;41.740;-88.000;2023-07-31T11:00:27;99368.63;;;18.63;55.21
45991;BME280;31721;41.740;-88.000;2023-07-31T11:03:00;99369.11;;;18.69;55.42
45991;BME280;31721;41.740;-88.000;2023-07-31T11:05:47;99366.70;;;18.53;55.31
45991;BME280;31721;41.740;-88.000;2023-07-31T11:08:17;99369.34;;;18.58;55.62
45991;BME280;31721;41.740;-88.000;2023-07-31T11:10:45;99374.94;;;18.47;55.68
45991;BME280;31721;41.740;-88.000;2023-07-31T11:13:13;99382.60;;;18.52;55.80
45991;BME280;31721;41.740;-88.000;2023-07-31T11:15:41;99384.32;;;18.58;55.75
45991;BME280;31721;41.740;-88.000;2023-07-31T11:18:08;99389.83;;;18.50;55.61
45991;BME280;31721;41.740;-88.000;2023-07-31T11:20:37;99390.01;;;18.56;55.50
45991;BME280;31721;41.740;-88.000;2023-07-31T11:23:07;99394.32;;;18.47;55.51
45991;BME280;31721;41.740;-88.000;2023-07-31T11:25:36;99397.40;;;18.40;56.04
45991;BME280;31721;41.740;-88.000;2023-07-31T11:28:06;99400.65;;;18.37;55.90
45991;BME280;31721;41.740;-88.000;2023-07-31T11:30:34;99403.82;;;18.38;56.43
45991;BME280;31721;41.740;-88.000;2023-07-31T11:33:04;99409.95;;;18.49;56.69
45991;BME280;31721;41.740;-88.000;2023-07-31T11:35:34;99423.52;;;18.54;56.85
45991;BME280;31721;41.740;-88.000;2023-07-31T11:38:03;99422.24;;;18.44;56.81
45991;BME280;31721;41.740;-88.000;2023-07-31T11:40:31;99417.73;;;18.56;56.80
45991;BME280;31721;41.740;-88.000;2023-07-31T11:43:04;99417.92;;;18.66;56.82
45991;BME280;31721;41.740;-88.000;2023-07-31T11:45:32;99412.55;;;18.54;56.82
45991;BME280;31721;41.740;-88.000;2023-07-31T11:48:01;99413.01;;;18.69;56.76
45991;BME280;31721;41.740;-88.000;2023-07-31T11:50:29;99420.91;;;18.63;56.89
45991;BME280;31721;41.740;-88.000;2023-07-31T11:53:03;99423.96;;;18.67;56.30
45991;BME280;31721;41.740;-88.000;2023-07-31T11:55:34;99422.27;;;18.65;56.01
45991;BME280;31721;41.740;-88.000;2023-07-31T11:58:02;99413.95;;;18.71;56.17
45991;BME280;31721;41.740;-88.000;2023-07-31T12:00:31;99413.39;;;18.71;56.25
45991;BME280;31721;41.740;-88.000;2023-07-31T12:02:59;99418.57;;;18.86;56.31
45991;BME280;31721;41.740;-88.000;2023-07-31T12:05:27;99422.72;;;18.93;56.33
45991;BME280;31721;41.740;-88.000;2023-07-31T12:07:55;99429.24;;;19.01;55.90
45991;BME280;31721;41.740;-88.000;2023-07-31T12:10:27;99439.45;;;19.09;56.03
45991;BME280;31721;41.740;-88.000;2023-07-31T12:12:58;99441.83;;;19.17;55.80
45991;BME280;31721;41.740;-88.000;2023-07-31T12:15:33;99442.18;;;19.17;55.79
45991;BME280;31721;41.740;-88.000;2023-07-31T12:18:05;99439.65;;;19.28;55.95
45991;BME280;31721;41.740;-88.000;2023-07-31T12:20:34;99444.47;;;19.37;56.05
45991;BME280;31721;41.740;-88.000;2023-07-31T12:23:02;99446.93;;;19.41;56.26
45991;BME280;31721;41.740;-88.000;2023-07-31T12:25:33;99452.29;;;19.52;56.35
45991;BME280;31721;41.740;-88.000;2023-07-31T12:28:08;99452.03;;;19.61;56.27
45991;BME280;31721;41.740;-88.000;2023-07-31T12:30:36;99452.44;;;19.62;56.03
45991;BME280;31721;41.740;-88.000;2023-07-31T12:33:04;99462.50;;;19.77;55.79
45991;BME280;31721;41.740;-88.000;2023-07-31T12:35:38;99465.78;;;19.87;55.32
45991;BME280;31721;41.740;-88.000;2023-07-31T12:38:06;99460.55;;;19.93;55.50
45991;BME280;31721;41.740;-88.000;2023-07-31T12:40:35;99461.41;;;20.02;55.72
45991;BME280;31721;41.740;-88.000;2023-07-31T12:43:03;99470.55;;;20.18;55.48
45991;BME280;31721;41.740;-88.000;2023-07-31T12:45:31;99479.18;;;20.33;55.04
45991;BME280;31721;41.740;-88.000;2023-07-31T12:47:59;99486.55;;;20.42;54.98
45991;BME280;31721;41.740;-88.000;2023-07-31T12:50:27;99489.73;;;20.65;55.16